createdAt,value
2023-03-24T00:00:24.326Z,99152.20
2023-03-24T00:02:53.428Z,99145.15
2023-03-24T00:05:22.804Z,99140.34
2023-03-24T00:07:55.062Z,99134.16
2023-03-24T00:10:24.507Z,99129.01
2023-03-24T00:12:52.815Z,99131.23
2023-03-24T00:15:21.614Z,99130.89
2023-03-24T00:17:50.717Z,99127.46
2023-03-24T00:20:20.554Z,99124.89
2023-03-24T00:22:57.145Z,99122.65
2023-03-24T00:25:34.056Z,99124.03
2023-03-24T00:28:06.001Z,99121.09
2023-03-24T00:30:36.724Z,99120.23
2023-03-24T00:33:07.447Z,99120.92
2023-03-24T00:35:40.744Z,99119.38
2023-03-24T00:38:10.791Z,99125.23
2023-03-24T00:40:39.348Z,99120.23
2023-03-24T00:43:08.105Z,99119.02
2023-03-24T00:45:37.110Z,99111.29
2023-03-24T00:48:06.418Z,99115.41
2023-03-24T00:50:34.994Z,99109.93
2023-03-24T00:53:05.701Z,99105.28
2023-03-24T00:55:38.146Z,99103.05
2023-03-24T00:58:06.402Z,99104.08
2023-03-24T01:00:42.576Z,99098.23
2023-03-24T01:03:11.930Z,99095.48
2023-03-24T01:05:41.425Z,99096.68
2023-03-24T01:08:13.762Z,99097.21
2023-03-24T01:10:50.576Z,99097.39
2023-03-24T01:13:25.306Z,99095.16
2023-03-24T01:15:53.831Z,99087.23
2023-03-24T01:18:24.234Z,99087.58
2023-03-24T01:20:52.831Z,99082.59
2023-03-24T01:23:23.596Z,99083.13
2023-03-24T01:25:52.283Z,99082.45
2023-03-24T01:28:27.365Z,99086.05
2023-03-24T01:30:55.966Z,99086.21
2023-03-24T01:33:24.689Z,99085.70
2023-03-24T01:35:52.911Z,99085.38
2023-03-24T01:38:21.156Z,99087.44
2023-03-24T01:40:50.064Z,99088.48
2023-03-24T01:43:31.498Z,99080.92
2023-03-24T01:46:14.312Z,99085.56
2023-03-24T01:48:50.715Z,99079.02
2023-03-24T01:51:28.446Z,99077.14
2023-03-24T01:54:05.402Z,99080.57
2023-03-24T01:56:38.339Z,99084.52
2023-03-24T01:59:09.478Z,99089.02
2023-03-24T02:01:44.516Z,99083.67
2023-03-24T02:04:20.517Z,99091.41
2023-03-24T02:06:49.100Z,99099.83
2023-03-24T02:09:19.274Z,99102.41
2023-03-24T02:11:47.941Z,99099.83
2023-03-24T02:14:16.422Z,99100.88
2023-03-24T02:17:00.113Z,99104.65
2023-03-24T02:19:53.792Z,99102.41
2023-03-24T02:22:47.266Z,99103.96
2023-03-24T02:25:43.803Z,99103.27
2023-03-24T02:28:23.660Z,99105.35
2023-03-24T02:31:29.324Z,99102.25
2023-03-24T02:34:36.313Z,99099.51
2023-03-24T02:37:21.380Z,99102.43
2023-03-24T02:39:59.121Z,99103.98
2023-03-24T02:42:46.770Z,99101.91
2023-03-24T02:45:24.266Z,99106.72
2023-03-24T02:48:21.494Z,99106.37
2023-03-24T02:50:53.617Z,99102.77
2023-03-24T02:53:48.349Z,99110.48
2023-03-24T02:56:59.646Z,99114.60
2023-03-24T02:59:45.504Z,99113.42
2023-03-24T03:02:47.207Z,99108.26
2023-03-24T03:05:20.368Z,99109.80
2023-03-24T03:07:51.589Z,99112.55
2023-03-24T03:10:25.802Z,99116.85
2023-03-24T03:12:57.063Z,99113.59
2023-03-24T03:15:31.182Z,99112.89
2023-03-24T03:18:07.287Z,99117.54
2023-03-24T03:20:39.754Z,99114.77
2023-03-24T03:23:13.650Z,99111.86
2023-03-24T03:25:46.622Z,99115.48
2023-03-24T03:28:22.085Z,99123.38
2023-03-24T03:30:54.859Z,99123.02
2023-03-24T03:33:27.860Z,99121.49
2023-03-24T03:36:16.207Z,99120.45
2023-03-24T03:39:08.515Z,99123.55
2023-03-24T03:41:37.906Z,99117.71
2023-03-24T03:44:06.941Z,99118.75
2023-03-24T03:46:38.463Z,99120.63
2023-03-24T03:49:08.587Z,99123.21
2023-03-24T03:51:38.030Z,99122.34
2023-03-24T03:54:08.942Z,99121.16
2023-03-24T03:56:37.583Z,99125.43
2023-03-24T03:59:29.819Z,99125.45
2023-03-24T04:02:05.074Z,99132.65
2023-03-24T04:04:59.803Z,99132.82
2023-03-24T04:08:37.507Z,99141.59
2023-03-24T04:11:55.360Z,99138.14
2023-03-24T04:15:25.920Z,99141.25
2023-03-24T04:18:35.896Z,99143.13
2023-03-24T04:21:33.661Z,99142.27
2023-03-24T04:24:37.377Z,99137.46
2023-03-24T04:27:22.162Z,99139.88
2023-03-24T04:30:08.289Z,99146.05
2023-03-24T04:32:46.545Z,99153.27
2023-03-24T04:35:32.159Z,99145.70
2023-03-24T04:38:27.970Z,99147.77
2023-03-24T04:41:09.929Z,99145.19
2023-03-24T04:43:40.551Z,99148.27
2023-03-24T04:46:10.234Z,99151.38
2023-03-24T04:49:03.352Z,99155.16
2023-03-24T04:51:34.861Z,99155.85
2023-03-24T04:54:09.100Z,99163.39
2023-03-24T04:56:47.903Z,99171.66
2023-03-24T04:59:24.843Z,99171.13
2023-03-24T05:01:53.648Z,99175.60
2023-03-24T05:04:42.555Z,99176.29
2023-03-24T05:07:21.730Z,99178.18
2023-03-24T05:09:52.688Z,99176.98
2023-03-24T05:12:28.214Z,99179.20
2023-03-24T05:15:33.609Z,99179.02
2023-03-24T05:18:28.184Z,99178.16
2023-03-24T05:21:01.030Z,99178.51
2023-03-24T05:23:29.783Z,99181.44
2023-03-24T05:26:04.926Z,99177.83
2023-03-24T05:28:36.458Z,99179.22
2023-03-24T05:31:05.146Z,99182.83
2023-03-24T05:33:53.251Z,99177.33
2023-03-24T05:36:25.680Z,99176.97
2023-03-24T05:38:59.624Z,99173.86
2023-03-24T05:41:38.992Z,99172.48
2023-03-24T05:44:07.344Z,99175.05
2023-03-24T05:46:37.149Z,99181.23
2023-03-24T05:49:06.267Z,99183.97
2023-03-24T05:51:40.068Z,99187.91
2023-03-24T05:54:11.670Z,99187.56
2023-03-24T05:56:44.629Z,99187.36
2023-03-24T05:59:42.461Z,99186.81
2023-03-24T06:02:20.448Z,99184.54
2023-03-24T06:04:53.366Z,99182.95
2023-03-24T06:07:26.950Z,99182.56
2023-03-24T06:10:03.269Z,99180.42
2023-03-24T06:12:38.811Z,99189.13
2023-03-24T06:15:08.574Z,99195.40
2023-03-24T06:17:46.285Z,99198.91
2023-03-24T06:20:24.542Z,99197.79
2023-03-24T06:23:05.205Z,99197.68
2023-03-24T06:25:45.074Z,99195.88
2023-03-24T06:28:22.541Z,99196.83
2023-03-24T06:30:59.218Z,99196.41
2023-03-24T06:33:35.365Z,99192.50
2023-03-24T06:36:04.557Z,99192.40
2023-03-24T06:38:34.630Z,99187.66
2023-03-24T06:41:03.771Z,99185.71
2023-03-24T06:43:32.873Z,99193.77
2023-03-24T06:46:01.870Z,99190.98
2023-03-24T06:48:30.699Z,99191.50
2023-03-24T06:51:04.868Z,99190.44
2023-03-24T06:53:35.276Z,99185.73
2023-03-24T06:56:05.844Z,99189.71
2023-03-24T06:58:40.560Z,99192.65
2023-03-24T07:01:11.947Z,99199.20
2023-03-24T07:03:59.717Z,99198.86
2023-03-24T07:07:00.741Z,99200.95
2023-03-24T07:09:32.815Z,99200.80
2023-03-24T07:12:03.737Z,99193.89
2023-03-24T07:14:32.134Z,99191.83
2023-03-24T07:17:02.512Z,99189.48
2023-03-24T07:19:49.165Z,99192.80
2023-03-24T07:22:42.378Z,99193.04
2023-03-24T07:25:30.721Z,99189.77
2023-03-24T07:28:22.118Z,99194.66
2023-03-24T07:30:53.938Z,99196.60
2023-03-24T07:33:25.070Z,99203.53
2023-03-24T07:35:57.612Z,99205.73
2023-03-24T07:38:29.381Z,99205.34
2023-03-24T07:41:01.511Z,99208.94
2023-03-24T07:43:31.643Z,99209.11
2023-03-24T07:46:02.586Z,99209.08
2023-03-24T07:48:33.422Z,99204.08
2023-03-24T07:51:02.067Z,99209.41
2023-03-24T07:53:55.400Z,99209.56
2023-03-24T07:56:49.909Z,99208.52
2023-03-24T07:59:18.824Z,99210.59
2023-03-24T08:02:11.914Z,99211.30
2023-03-24T08:04:53.915Z,99204.44
2023-03-24T08:07:42.890Z,99204.40
2023-03-24T08:10:14.096Z,99203.25
2023-03-24T08:12:45.458Z,99202.77
2023-03-24T08:15:13.726Z,99197.83
2023-03-24T08:17:43.889Z,99200.35
2023-03-24T08:20:21.483Z,99197.48
2023-03-24T08:22:50.445Z,99197.14
2023-03-24T08:25:19.152Z,99198.16
2023-03-24T08:27:51.758Z,99196.07
2023-03-24T08:30:21.249Z,99189.29
2023-03-24T08:32:59.880Z,99190.27
2023-03-24T08:35:33.444Z,99188.32
2023-03-24T08:38:06.090Z,99186.19
2023-03-24T08:40:37.248Z,99184.20
2023-03-24T08:43:09.391Z,99180.86
2023-03-24T08:45:37.789Z,99176.17
2023-03-24T08:48:07.036Z,99178.14
2023-03-24T08:50:37.710Z,99180.41
2023-03-24T08:53:06.303Z,99175.59
2023-03-24T08:55:35.029Z,99179.25
2023-03-24T08:58:03.168Z,99178.95
2023-03-24T09:00:31.792Z,99178.34
2023-03-24T09:03:09.624Z,99180.27
2023-03-24T09:05:44.556Z,99180.87
2023-03-24T09:08:14.306Z,99178.02
2023-03-24T09:10:48.563Z,99174.76
2023-03-24T09:13:18.652Z,99174.52
2023-03-24T09:15:50.115Z,99175.65
2023-03-24T09:18:19.065Z,99179.98
2023-03-24T09:20:50.626Z,99176.51
2023-03-24T09:23:20.048Z,99177.96
2023-03-24T09:25:51.319Z,99175.41
2023-03-24T09:28:21.636Z,99173.98
2023-03-24T09:30:50.276Z,99169.27
2023-03-24T09:33:18.871Z,99163.60
2023-03-24T09:35:58.492Z,99159.63
2023-03-24T09:38:33.815Z,99157.78
2023-03-24T09:41:04.707Z,99153.16
2023-03-24T09:43:39.971Z,99154.02
2023-03-24T09:46:34.252Z,99150.33
2023-03-24T09:49:03.343Z,99151.35
2023-03-24T09:51:36.746Z,99149.94
2023-03-24T09:54:22.515Z,99149.73
2023-03-24T09:56:55.474Z,99148.15
2023-03-24T09:59:40.209Z,99149.71
2023-03-24T10:02:19.761Z,99152.18
2023-03-24T10:04:48.846Z,99155.45
2023-03-24T10:07:38.990Z,99149.44
2023-03-24T10:10:15.789Z,99156.27
2023-03-24T10:12:48.540Z,99154.91
2023-03-24T10:15:50.169Z,99149.62
2023-03-24T10:18:30.796Z,99144.38
2023-03-24T10:21:25.837Z,99143.27
2023-03-24T10:23:59.149Z,99136.96
2023-03-24T10:26:39.940Z,99136.73
2023-03-24T10:29:28.178Z,99131.60
2023-03-24T10:31:59.459Z,99128.17
2023-03-24T10:34:30.595Z,99124.88
2023-03-24T10:37:01.342Z,99125.52
2023-03-24T10:39:41.888Z,99118.81
2023-03-24T10:42:21.694Z,99117.89
2023-03-24T10:44:52.302Z,99111.95
2023-03-24T10:47:30.749Z,99109.85
2023-03-24T10:50:12.752Z,99110.61
2023-03-24T10:52:47.470Z,99104.30
2023-03-24T10:55:19.265Z,99096.77
2023-03-24T10:57:55.730Z,99097.16
2023-03-24T11:00:31.946Z,99096.17
2023-03-24T11:03:02.665Z,99089.63
2023-03-24T11:05:33.457Z,99086.54
2023-03-24T11:08:40.423Z,99080.27
2023-03-24T11:11:24.455Z,99080.61
2023-03-24T11:13:58.612Z,99081.50
2023-03-24T11:16:37.203Z,99081.17
2023-03-24T11:19:07.374Z,99079.04
2023-03-24T11:21:37.281Z,99076.39
2023-03-24T11:24:13.382Z,99071.40
2023-03-24T11:26:51.573Z,99065.86
2023-03-24T11:29:21.961Z,99065.48
2023-03-24T11:31:52.858Z,99062.34
2023-03-24T11:34:26.410Z,99061.14
2023-03-24T11:37:01.505Z,99057.52
2023-03-24T11:39:31.681Z,99054.80
2023-03-24T11:42:27.433Z,99054.90
2023-03-24T11:44:56.792Z,99052.67
2023-03-24T11:47:36.921Z,99050.64
2023-03-24T11:50:05.073Z,99045.77
2023-03-24T11:52:56.440Z,99039.55
2023-03-24T11:56:12.561Z,99035.95
2023-03-24T11:58:49.082Z,99030.26
2023-03-24T12:01:20.828Z,99026.92
2023-03-24T12:04:13.072Z,99024.80
2023-03-24T12:07:01.494Z,99023.79
2023-03-24T12:09:32.516Z,99019.84
2023-03-24T12:12:36.372Z,99016.64
2023-03-24T12:15:24.592Z,99017.73
2023-03-24T12:18:18.731Z,99014.70
2023-03-24T12:20:57.482Z,99014.48
2023-03-24T12:24:02.295Z,99014.07
2023-03-24T12:26:33.449Z,99014.33
2023-03-24T12:29:24.101Z,99016.11
2023-03-24T12:32:03.848Z,99014.55
2023-03-24T12:34:36.579Z,99017.33
2023-03-24T12:37:27.257Z,99012.58
2023-03-24T12:40:02.613Z,99012.48
2023-03-24T12:42:33.619Z,99017.18
2023-03-24T12:45:14.322Z,99015.95
2023-03-24T12:47:59.011Z,99009.30
2023-03-24T12:50:52.742Z,99006.11
2023-03-24T12:53:55.093Z,98998.88
2023-03-24T12:57:00.326Z,98993.02
2023-03-24T13:00:11.053Z,98993.80
2023-03-24T13:02:45.975Z,98984.38
2023-03-24T13:05:19.172Z,98982.89
2023-03-24T13:07:54.261Z,98976.17
2023-03-24T13:10:33.879Z,98979.49
2023-03-24T13:13:24.686Z,98976.05
2023-03-24T13:16:06.661Z,98978.49
2023-03-24T13:18:52.832Z,98979.46
2023-03-24T13:21:23.769Z,98978.98
2023-03-24T13:23:58.112Z,98971.82
2023-03-24T13:26:54.390Z,98968.76
2023-03-24T13:29:47.430Z,98967.50
2023-03-24T13:32:22.595Z,98968.33
2023-03-24T13:34:58.737Z,98968.03
2023-03-24T13:37:32.071Z,98961.41
2023-03-24T13:40:01.480Z,98963.39
2023-03-24T13:42:42.753Z,98963.02
2023-03-24T13:45:26.904Z,98957.02
2023-03-24T13:48:09.807Z,98951.73
2023-03-24T13:50:42.435Z,98957.01
2023-03-24T13:53:14.396Z,98953.28
2023-03-24T13:55:51.592Z,98954.87
2023-03-24T13:58:23.349Z,98950.17
2023-03-24T14:01:12.499Z,98950.21
2023-03-24T14:03:42.077Z,98948.39
2023-03-24T14:06:11.504Z,98952.86
2023-03-24T14:08:52.141Z,98948.83
2023-03-24T14:11:42.630Z,98948.34
2023-03-24T14:14:19.542Z,98947.55
2023-03-24T14:17:04.488Z,98954.27
2023-03-24T14:19:39.481Z,98947.38
2023-03-24T14:22:32.143Z,98948.52
2023-03-24T14:25:21.567Z,98952.05
2023-03-24T14:27:51.641Z,98952.09
2023-03-24T14:30:26.465Z,98951.88
2023-03-24T14:32:56.478Z,98948.15
2023-03-24T14:35:35.129Z,98949.50
2023-03-24T14:38:21.555Z,98945.80
2023-03-24T14:40:54.449Z,98943.20
2023-03-24T14:43:30.123Z,98941.10
2023-03-24T14:46:00.275Z,98940.77
2023-03-24T14:48:57.551Z,98935.04
2023-03-24T14:51:44.616Z,98936.82
2023-03-24T14:54:23.529Z,98936.19
2023-03-24T14:56:53.840Z,98933.77
2023-03-24T14:59:39.976Z,98929.94
2023-03-24T15:02:20.688Z,98934.84
2023-03-24T15:05:13.937Z,98933.22
2023-03-24T15:07:42.810Z,98927.47
2023-03-24T15:10:15.904Z,98929.85
2023-03-24T15:12:49.343Z,98929.98
2023-03-24T15:15:22.595Z,98930.65
2023-03-24T15:17:51.436Z,98926.21
2023-03-24T15:20:27.059Z,98925.27
2023-03-24T15:22:55.481Z,98926.95
2023-03-24T15:25:28.214Z,98924.16
2023-03-24T15:27:58.304Z,98924.65
2023-03-24T15:30:27.082Z,98926.53
2023-03-24T15:32:56.023Z,98925.29
2023-03-24T15:35:25.072Z,98929.09
2023-03-24T15:37:55.469Z,98930.46
2023-03-24T15:40:26.958Z,98929.06
2023-03-24T15:42:57.108Z,98928.85
2023-03-24T15:45:31.530Z,98930.91
2023-03-24T15:48:13.501Z,98927.25
2023-03-24T15:50:42.423Z,98927.79
2023-03-24T15:53:19.655Z,98930.73
2023-03-24T15:56:02.512Z,98931.23
2023-03-24T15:58:34.630Z,98930.71
2023-03-24T16:01:10.262Z,98933.12
2023-03-24T16:03:42.328Z,98934.84
2023-03-24T16:06:15.218Z,98936.55
2023-03-24T16:08:46.106Z,98934.59
2023-03-24T16:11:14.404Z,98939.75
2023-03-24T16:13:47.329Z,98940.25
2023-03-24T16:16:29.737Z,98946.63
2023-03-24T16:18:59.553Z,98948.50
2023-03-24T16:21:28.933Z,98946.73
2023-03-24T16:23:58.408Z,98947.54
2023-03-24T16:26:27.563Z,98954.24
2023-03-24T16:29:16.822Z,98952.80
2023-03-24T16:31:49.486Z,98954.14
2023-03-24T16:34:21.242Z,98953.59
2023-03-24T16:36:51.062Z,98951.10
2023-03-24T16:39:24.050Z,98952.77
2023-03-24T16:41:54.272Z,98950.30
2023-03-24T16:44:23.772Z,98952.88
2023-03-24T16:46:53.783Z,98951.96
2023-03-24T16:49:22.754Z,98949.30
2023-03-24T16:51:52.742Z,98945.27
2023-03-24T16:54:25.527Z,98948.63
2023-03-24T16:56:54.469Z,98945.57
2023-03-24T16:59:22.656Z,98945.34
2023-03-24T17:01:53.116Z,98947.15
2023-03-24T17:04:22.466Z,98947.77
2023-03-24T17:06:57.724Z,98948.20
2023-03-24T17:09:28.669Z,98944.80
2023-03-24T17:11:57.632Z,98947.15
2023-03-24T17:14:32.743Z,98944.45
2023-03-24T17:17:02.978Z,98943.30
2023-03-24T17:19:31.477Z,98943.04
2023-03-24T17:22:06.476Z,98942.58
2023-03-24T17:24:41.836Z,98939.48
2023-03-24T17:27:21.385Z,98937.65
2023-03-24T17:29:50.982Z,98943.23
2023-03-24T17:32:21.753Z,98944.52
2023-03-24T17:34:52.388Z,98944.44
2023-03-24T17:37:21.262Z,98946.07
2023-03-24T17:39:52.762Z,98945.45
2023-03-24T17:42:26.407Z,98946.55
2023-03-24T17:44:57.598Z,98950.59
2023-03-24T17:47:30.411Z,98953.11
2023-03-24T17:50:18.521Z,98960.98
2023-03-24T17:52:48.921Z,98963.16
2023-03-24T17:55:17.262Z,98966.21
2023-03-24T17:57:45.510Z,98966.64
2023-03-24T18:00:14.779Z,98967.54
2023-03-24T18:02:43.818Z,98974.70
2023-03-24T18:05:16.282Z,98975.33
2023-03-24T18:07:47.273Z,98972.98
2023-03-24T18:10:15.794Z,98970.30
2023-03-24T18:12:47.199Z,98969.86
2023-03-24T18:15:16.058Z,98970.30
2023-03-24T18:17:44.743Z,98972.80
2023-03-24T18:20:20.995Z,98972.19
2023-03-24T18:22:49.137Z,98975.27
2023-03-24T18:25:17.635Z,98976.45
2023-03-24T18:27:45.772Z,98975.67
2023-03-24T18:30:14.697Z,98975.57
2023-03-24T18:32:43.303Z,98977.70
2023-03-24T18:35:16.448Z,98974.99
2023-03-24T18:37:44.868Z,98983.71
2023-03-24T18:40:16.263Z,98994.89
2023-03-24T18:42:45.400Z,98999.25
2023-03-24T18:45:17.933Z,99000.43
2023-03-24T18:47:48.250Z,98992.29
2023-03-24T18:50:16.709Z,98988.77
2023-03-24T18:52:49.973Z,98987.33
2023-03-24T18:55:20.904Z,98987.05
2023-03-24T18:57:49.242Z,98986.38
2023-03-24T19:00:20.468Z,98987.11
2023-03-24T19:02:49.368Z,98981.79
2023-03-24T19:05:18.105Z,98978.69
2023-03-24T19:07:48.650Z,98977.90
2023-03-24T19:10:16.849Z,98974.88
2023-03-24T19:12:49.817Z,98972.70
2023-03-24T19:15:19.089Z,98968.59
2023-03-24T19:17:47.507Z,98966.56
2023-03-24T19:20:20.202Z,98964.70
2023-03-24T19:22:49.433Z,98961.10
2023-03-24T19:25:18.951Z,98958.53
2023-03-24T19:27:49.213Z,98958.72
2023-03-24T19:30:19.133Z,98957.52
2023-03-24T19:32:48.091Z,98960.33
2023-03-24T19:35:21.426Z,98964.15
2023-03-24T19:37:50.210Z,98957.58
2023-03-24T19:40:25.394Z,98960.23
2023-03-24T19:42:54.640Z,98959.41
2023-03-24T19:45:23.130Z,98953.39
2023-03-24T19:47:51.621Z,98949.95
2023-03-24T19:50:22.908Z,98947.52
2023-03-24T19:52:51.498Z,98945.78
2023-03-24T19:55:20.070Z,98937.96
2023-03-24T19:57:48.784Z,98936.73
2023-03-24T20:00:21.708Z,98931.21
2023-03-24T20:02:51.223Z,98927.80
2023-03-24T20:05:27.072Z,98928.38
2023-03-24T20:07:59.936Z,98922.92
2023-03-24T20:10:29.762Z,98921.34
2023-03-24T20:12:58.059Z,98917.83
2023-03-24T20:15:26.308Z,98917.73
2023-03-24T20:17:54.427Z,98916.67
2023-03-24T20:20:25.619Z,98913.15
2023-03-24T20:22:58.011Z,98908.75
2023-03-24T20:25:29.775Z,98909.66
2023-03-24T20:28:02.660Z,98905.30
2023-03-24T20:30:41.222Z,98906.34
2023-03-24T20:33:35.612Z,98908.75
2023-03-24T20:36:18.409Z,98905.48
2023-03-24T20:39:08.183Z,98904.80
2023-03-24T20:41:55.063Z,98895.99
2023-03-24T20:44:31.454Z,98896.65
2023-03-24T20:47:06.785Z,98898.02
2023-03-24T20:49:35.572Z,98893.55
2023-03-24T20:52:06.672Z,98894.13
2023-03-24T20:55:01.724Z,98893.52
2023-03-24T20:57:31.588Z,98892.70
2023-03-24T21:00:14.518Z,98891.70
2023-03-24T21:02:45.562Z,98886.06
2023-03-24T21:05:21.350Z,98881.46
2023-03-24T21:07:50.399Z,98887.23
2023-03-24T21:10:18.659Z,98887.29
2023-03-24T21:12:53.205Z,98879.88
2023-03-24T21:15:25.290Z,98883.06
2023-03-24T21:17:54.158Z,98882.16
2023-03-24T21:20:27.060Z,98877.65
2023-03-24T21:22:57.218Z,98873.02
2023-03-24T21:25:33.810Z,98871.65
2023-03-24T21:28:03.678Z,98867.02
2023-03-24T21:30:31.954Z,98867.04
2023-03-24T21:33:01.542Z,98866.83
2023-03-24T21:35:37.546Z,98869.77
2023-03-24T21:38:09.905Z,98862.42
2023-03-24T21:40:38.326Z,98856.41
2023-03-24T21:43:07.517Z,98850.98
2023-03-24T21:45:36.384Z,98842.59
2023-03-24T21:48:06.237Z,98837.98
2023-03-24T21:50:39.175Z,98823.39
2023-03-24T21:53:15.436Z,98822.23
2023-03-24T21:55:55.796Z,98826.19
2023-03-24T21:58:33.145Z,98843.02
2023-03-24T22:01:07.827Z,98846.59
2023-03-24T22:03:38.982Z,98845.49
2023-03-24T22:06:10.749Z,98844.39
2023-03-24T22:08:44.166Z,98834.64
2023-03-24T22:11:18.990Z,98834.59
2023-03-24T22:13:54.050Z,98825.52
2023-03-24T22:16:23.370Z,98826.16
2023-03-24T22:18:54.480Z,98820.41
2023-03-24T22:21:30.815Z,98813.41
2023-03-24T22:24:11.166Z,98810.27
2023-03-24T22:27:39.258Z,98829.30
2023-03-24T22:39:05.537Z,98808.16
2023-03-24T22:42:01.725Z,98804.65
2023-03-24T22:44:34.238Z,98810.93
2023-03-24T22:47:15.719Z,98818.10
2023-03-24T22:50:00.743Z,98820.39
2023-03-24T22:52:33.705Z,98817.55
2023-03-24T22:55:06.511Z,98814.02
2023-03-24T22:57:41.832Z,98810.55
2023-03-24T23:00:44.906Z,98810.23
2023-03-24T23:07:04.280Z,98806.23
2023-03-24T23:09:37.646Z,98805.41
2023-03-24T23:12:08.794Z,98806.96
2023-03-24T23:14:40.990Z,98802.98
2023-03-24T23:17:10.936Z,98805.35
2023-03-24T23:19:53.787Z,98801.04
2023-03-24T23:22:26.489Z,98793.61
2023-03-24T23:25:01.006Z,98792.77
2023-03-24T23:27:44.894Z,98790.88
2023-03-24T23:30:23.785Z,98792.27
2023-03-24T23:33:09.210Z,98788.13
2023-03-24T23:36:37.444Z,98781.23
2023-03-24T23:42:54.145Z,98766.90
2023-03-24T23:45:48.587Z,98766.41
2023-03-24T23:48:46.318Z,98770.71
2023-03-24T23:51:40.393Z,98767.02
2023-03-24T23:57:40.123Z,98757.63
